Time;durP1;ratioP1;P1;durP2;ratioP2;P2;SDS_P1;SDS_P2;PMS_P1;PMS_P2;Temp;Humidity;BMP_temperature;BMP_pressure;BME280_temperature;BME280_humidity;BME280_pressure;Samples;Min_cycle;Max_cycle;Signal;HPM_P1;HPM_P2
2021/06/12 00:02:19;;;;;;;15.95;14.60;;;15.70;99.90;;;;;;4998531;28;20056;-86
2021/06/12 00:04:46;;;;;;;15.00;13.52;;;15.70;99.90;;;;;;5016005;28;20072;-85
2021/06/12 00:07:13;;;;;;;15.13;13.70;;;15.70;99.90;;;;;;5015354;28;20410;-86
2021/06/12 00:09:39;;;;;;;15.25;13.68;;;15.80;99.90;;;;;;4998347;28;20050;-86
2021/06/12 00:12:07;;;;;;;14.50;13.20;;;15.80;99.90;;;;;;4998182;28;20048;-86
2021/06/12 00:14:34;;;;;;;13.20;12.10;;;15.90;99.90;;;;;;4998232;28;20100;-86
2021/06/12 00:17:01;;;;;;;14.85;13.32;;;16.00;99.90;;;;;;4998081;28;20553;-86
2021/06/12 00:19:28;;;;;;;15.00;13.55;;;16.10;99.90;;;;;;4998273;28;20053;-87
2021/06/12 00:21:55;;;;;;;13.52;12.38;;;16.10;99.90;;;;;;4998436;28;20463;-85
2021/06/12 00:24:22;;;;;;;13.55;12.45;;;16.10;99.90;;;;;;5014275;28;20109;-87
2021/06/12 00:26:49;;;;;;;13.98;12.63;;;16.10;99.90;;;;;;5017745;28;20422;-86
2021/06/12 00:29:15;;;;;;;13.20;12.13;;;16.00;99.90;;;;;;5014993;28;20054;-86
2021/06/12 00:31:42;;;;;;;13.07;11.88;;;16.00;99.90;;;;;;4998087;28;20060;-86
2021/06/12 00:34:09;;;;;;;13.80;12.57;;;15.90;99.90;;;;;;4997912;28;20444;-87
2021/06/12 00:36:36;;;;;;;14.63;13.23;;;15.80;99.90;;;;;;4997761;28;20045;-86
2021/06/12 00:39:04;;;;;;;15.10;13.60;;;15.80;99.90;;;;;;4997594;28;20409;-87
2021/06/12 00:41:31;;;;;;;14.82;13.50;;;15.70;99.90;;;;;;4997819;28;20080;-87
2021/06/12 00:43:57;;;;;;;16.38;14.77;;;15.60;99.90;;;;;;5014914;28;20483;-86
2021/06/12 00:46:24;;;;;;;15.15;13.82;;;15.40;99.90;;;;;;5014074;28;20042;-86
2021/06/12 00:48:53;;;;;;;15.90;14.38;;;15.40;99.90;;;;;;4997085;28;20058;-86
2021/06/12 00:51:21;;;;;;;15.65;14.27;;;15.50;99.90;;;;;;4997520;28;20417;-87
2021/06/12 00:53:48;;;;;;;16.05;14.55;;;15.50;99.90;;;;;;4996889;28;20049;-86
2021/06/12 00:56:18;;;;;;;15.60;14.30;;;15.50;99.90;;;;;;4996739;28;20049;-86
2021/06/12 00:58:47;;;;;;;16.27;14.68;;;15.30;99.90;;;;;;4996945;28;20417;-86
2021/06/12 01:01:16;;;;;;;16.08;14.68;;;15.20;99.90;;;;;;4996877;28;20049;-86
2021/06/12 01:03:45;;;;;;;17.52;15.90;;;15.20;99.90;;;;;;4996848;28;20076;-87
2021/06/12 01:06:14;;;;;;;16.67;15.13;;;15.20;99.90;;;;;;5013812;28;20137;-86
2021/06/12 01:08:44;;;;;;;18.35;16.60;;;15.30;99.90;;;;;;5013953;28;20060;-86
2021/06/12 01:11:11;;;;;;;18.67;16.73;;;15.20;99.90;;;;;;5013898;28;20200;-86
2021/06/12 01:14:00;;;;;;;18.30;16.48;;;15.20;99.90;;;;;;4996930;28;20046;-87
2021/06/12 01:16:43;;;;;;;16.42;14.93;;;15.10;99.90;;;;;;4996960;28;20046;-87
2021/06/12 01:19:31;;;;;;;18.38;16.63;;;15.00;99.90;;;;;;4996526;28;20058;-86
2021/06/12 01:22:02;;;;;;;18.08;16.50;;;14.90;99.90;;;;;;4996693;28;20054;-86
2021/06/12 01:24:48;;;;;;;18.67;17.08;;;14.90;99.90;;;;;;4996435;28;20057;-86
2021/06/12 01:27:27;;;;;;;20.40;18.30;;;15.00;99.90;;;;;;4996344;28;20062;-87
2021/06/12 01:30:16;;;;;;;19.70;17.92;;;15.00;99.90;;;;;;4997047;28;20056;-87
2021/06/12 01:32:48;;;;;;;18.83;17.08;;;15.00;99.90;;;;;;4996518;28;20050;-86
2021/06/12 01:35:22;;;;;;;19.45;17.55;;;15.00;99.90;;;;;;4996310;28;20046;-87
2021/06/12 01:37:51;;;;;;;17.50;15.90;;;15.10;99.90;;;;;;5013386;28;20073;-86
2021/06/12 01:40:26;;;;;;;16.77;15.10;;;15.20;99.90;;;;;;5014249;28;20141;-86
2021/06/12 01:42:54;;;;;;;16.60;15.10;;;15.20;99.90;;;;;;5010453;28;20101;-85
2021/06/12 01:45:23;;;;;;;15.38;14.18;;;15.30;99.90;;;;;;5018493;28;20053;-86
2021/06/12 01:47:52;;;;;;;15.45;14.15;;;15.40;99.90;;;;;;4996046;28;20415;-86
2021/06/12 01:50:22;;;;;;;15.50;14.20;;;15.40;99.90;;;;;;4996274;28;20148;-86
2021/06/12 01:52:49;;;;;;;15.20;13.80;;;15.30;99.90;;;;;;5013297;28;20050;-86
2021/06/12 01:55:20;;;;;;;15.68;14.13;;;15.30;99.90;;;;;;5013309;28;20117;-87
2021/06/12 01:57:48;;;;;;;16.13;14.63;;;15.20;99.90;;;;;;5013345;28;20049;-87
2021/06/12 02:00:16;;;;;;;20.33;15.15;;;15.10;99.90;;;;;;4996310;28;20054;-86
2021/06/12 02:02:44;;;;;;;18.70;15.57;;;15.00;99.90;;;;;;4995997;28;20049;-87
2021/06/12 02:05:16;;;;;;;16.63;15.13;;;14.90;99.90;;;;;;4995925;28;20046;-86
2021/06/12 02:07:44;;;;;;;17.80;16.02;;;14.90;99.90;;;;;;4996256;28;20056;-86
2021/06/12 02:10:13;;;;;;;17.67;16.17;;;14.80;99.90;;;;;;4996219;28;20354;-87
2021/06/12 02:12:40;;;;;;;18.90;17.10;;;14.80;99.90;;;;;;5013345;28;20463;-88
2021/06/12 02:15:08;;;;;;;19.38;17.20;;;14.80;99.90;;;;;;4995549;28;20562;-87
2021/06/12 02:17:37;;;;;;;18.60;16.90;;;14.70;99.90;;;;;;4996118;28;20068;-87
2021/06/12 02:20:10;;;;;;;18.40;16.80;;;14.70;99.90;;;;;;4995911;28;20057;-86
2021/06/12 02:22:41;;;;;;;18.88;17.13;;;14.60;99.90;;;;;;5013366;28;20060;-87
2021/06/12 02:25:10;;;;;;;20.30;18.38;;;14.60;99.90;;;;;;5013226;28;20050;-86
2021/06/12 02:27:41;;;;;;;17.98;16.38;;;14.50;99.90;;;;;;4995940;28;20046;-86
2021/06/12 02:30:08;;;;;;;18.60;17.00;;;14.50;99.90;;;;;;5013380;28;20058;-87
2021/06/12 02:32:45;;;;;;;19.33;17.63;;;14.40;99.90;;;;;;4996567;28;20085;-87
2021/06/12 02:35:13;;;;;;;19.88;18.23;;;14.30;99.90;;;;;;4997305;28;20060;-87
2021/06/12 02:37:41;;;;;;;21.45;19.55;;;14.20;99.90;;;;;;4995775;28;20052;-87
2021/06/12 02:40:10;;;;;;;21.55;19.42;;;14.20;99.90;;;;;;4996093;28;20448;-87
2021/06/12 02:42:37;;;;;;;21.05;19.25;;;14.10;99.90;;;;;;4996096;28;20072;-87
2021/06/12 02:45:06;;;;;;;20.77;18.50;;;14.20;99.90;;;;;;5013003;28;20053;-87
2021/06/12 02:47:41;;;;;;;22.58;20.38;;;14.20;99.90;;;;;;4995671;28;20053;-87
2021/06/12 02:50:09;;;;;;;20.55;18.75;;;14.20;99.90;;;;;;5012850;28;20049;-87
2021/06/12 02:52:40;;;;;;;20.98;19.13;;;14.20;99.90;;;;;;4995538;28;20071;-87
2021/06/12 02:55:12;;;;;;;21.10;19.20;;;14.20;99.90;;;;;;4995481;28;20483;-87
2021/06/12 02:57:44;;;;;;;22.60;20.25;;;14.20;99.90;;;;;;4995290;28;20050;-88
2021/06/12 03:00:12;;;;;;;21.85;19.63;;;14.20;99.90;;;;;;5013745;28;20064;-87
2021/06/12 03:02:42;;;;;;;22.38;20.08;;;14.10;99.90;;;;;;5012511;28;20074;-88
2021/06/12 03:05:15;;;;;;;21.63;19.60;;;14.10;99.90;;;;;;4995348;28;20157;-87
2021/06/12 03:07:47;;;;;;;21.40;19.33;;;14.10;99.90;;;;;;4995596;28;20502;-88
2021/06/12 03:10:15;;;;;;;22.33;20.33;;;14.10;99.90;;;;;;4996714;28;20058;-88
2021/06/12 03:12:46;;;;;;;24.25;21.90;;;14.10;99.90;;;;;;4998991;28;20141;-88
2021/06/12 03:15:14;;;;;;;23.40;21.08;;;14.10;99.90;;;;;;4998902;28;20053;-88
2021/06/12 03:17:46;;;;;;;22.00;19.80;;;14.00;99.90;;;;;;4998983;28;20088;-88
2021/06/12 03:20:15;;;;;;;22.00;19.50;;;14.00;99.90;;;;;;4999276;28;20075;-87
2021/06/12 03:22:45;;;;;;;23.08;20.95;;;14.00;99.90;;;;;;4999189;28;20054;-87
2021/06/12 03:25:13;;;;;;;22.42;20.15;;;14.10;99.90;;;;;;4998803;28;20318;-88
2021/06/12 03:27:41;;;;;;;21.00;18.83;;;14.00;99.90;;;;;;5016015;28;20046;-87
2021/06/12 03:30:09;;;;;;;22.55;20.27;;;14.00;99.90;;;;;;5015826;28;20487;-88
2021/06/12 03:32:37;;;;;;;22.58;20.17;;;14.00;99.90;;;;;;5015785;28;20056;-88
2021/06/12 03:35:04;;;;;;;24.40;22.05;;;13.90;99.90;;;;;;4998307;28;20053;-88
2021/06/12 03:37:32;;;;;;;25.95;23.35;;;13.90;99.90;;;;;;5015777;28;20042;-87
2021/06/12 03:40:00;;;;;;;23.92;21.63;;;13.90;99.90;;;;;;4998516;28;20046;-88
2021/06/12 03:42:27;;;;;;;25.92;23.33;;;13.80;99.90;;;;;;4998472;28;20049;-88
2021/06/12 03:44:56;;;;;;;29.42;23.92;;;13.90;99.90;;;;;;5015273;28;20056;-88
2021/06/12 03:47:24;;;;;;;25.77;23.13;;;13.90;99.90;;;;;;5015594;28;20053;-88
2021/06/12 03:49:51;;;;;;;25.25;22.70;;;13.80;99.90;;;;;;4998407;28;20053;-88
2021/06/12 03:52:26;;;;;;;27.25;23.50;;;13.90;99.90;;;;;;5015782;28;20133;-88
2021/06/12 03:54:55;;;;;;;24.67;22.17;;;13.90;99.90;;;;;;4998343;28;20108;-88
2021/06/12 03:57:22;;;;;;;26.88;24.27;;;13.80;99.90;;;;;;5015428;28;20046;-88
2021/06/12 03:59:49;;;;;;;27.02;24.63;;;13.80;99.90;;;;;;5015285;28;20052;-87
2021/06/12 04:02:16;;;;;;;24.90;22.63;;;13.80;99.90;;;;;;4998100;28;20046;-87
2021/06/12 04:04:45;;;;;;;23.00;20.75;;;13.90;99.90;;;;;;4997976;28;20061;-88
2021/06/12 04:07:13;;;;;;;23.92;21.55;;;14.00;99.90;;;;;;4997739;28;20058;-88
2021/06/12 04:09:40;;;;;;;21.85;19.85;;;14.00;99.90;;;;;;4998000;28;20052;-88
2021/06/12 04:12:07;;;;;;;20.20;18.40;;;14.00;99.90;;;;;;5015079;28;20042;-88
2021/06/12 04:14:34;;;;;;;19.58;17.85;;;14.20;99.90;;;;;;4997789;28;20073;-88
2021/06/12 04:17:01;;;;;;;19.02;17.08;;;14.30;99.90;;;;;;4997660;28;20081;-86
2021/06/12 04:19:28;;;;;;;17.30;15.77;;;14.40;99.90;;;;;;5000797;28;20056;-88
2021/06/12 04:21:55;;;;;;;19.40;17.38;;;14.60;99.90;;;;;;5005907;28;20064;-88
2021/06/12 04:24:22;;;;;;;15.07;13.60;;;14.80;99.90;;;;;;4998168;28;20052;-88
2021/06/12 04:26:49;;;;;;;13.60;12.40;;;15.10;99.90;;;;;;4998237;28;20240;-86
2021/06/12 04:29:15;;;;;;;13.15;11.77;;;15.40;99.90;;;;;;5016344;28;20136;-88
2021/06/12 04:31:42;;;;;;;11.88;10.98;;;15.70;99.90;;;;;;5015390;28;20049;-88
2021/06/12 04:34:09;;;;;;;11.68;10.60;;;16.00;99.90;;;;;;4998047;28;20050;-88
2021/06/12 04:36:36;;;;;;;10.55;9.75;;;16.20;99.90;;;;;;5015327;28;20060;-88
2021/06/12 04:39:04;;;;;;;10.82;9.93;;;16.40;99.90;;;;;;5014675;28;20050;-87
2021/06/12 04:41:30;;;;;;;10.50;9.50;;;16.60;99.90;;;;;;4997940;28;20049;-87
2021/06/12 04:43:57;;;;;;;10.15;9.35;;;16.60;99.90;;;;;;5015044;28;20049;-88
2021/06/12 04:46:24;;;;;;;10.88;9.90;;;16.70;99.90;;;;;;4997661;28;20060;-88
2021/06/12 04:48:51;;;;;;;10.60;9.52;;;16.80;99.90;;;;;;5015222;28;20054;-87
2021/06/12 04:51:17;;;;;;;10.40;9.27;;;17.00;99.90;;;;;;4998132;28;20392;-88
2021/06/12 04:53:44;;;;;;;9.95;8.90;;;17.00;99.90;;;;;;4998043;28;20141;-88
2021/06/12 04:56:11;;;;;;;9.43;8.70;;;17.20;99.90;;;;;;4997851;28;20073;-88
2021/06/12 04:58:38;;;;;;;10.60;9.23;;;17.40;99.90;;;;;;4997719;28;20156;-88
2021/06/12 05:01:05;;;;;;;9.20;8.30;;;17.60;99.90;;;;;;4997550;28;20064;-88
2021/06/12 05:03:31;;;;;;;8.73;7.95;;;17.80;99.90;;;;;;4997419;28;20052;-87
2021/06/12 05:05:58;;;;;;;9.30;8.27;;;17.80;99.90;;;;;;4997505;28;20052;-87
2021/06/12 05:08:25;;;;;;;9.57;8.68;;;17.90;99.90;;;;;;4997584;28;20046;-86
2021/06/12 05:10:52;;;;;;;8.43;7.70;;;18.00;99.90;;;;;;4997401;28;20060;-87
2021/06/12 05:13:18;;;;;;;8.77;7.90;;;18.00;99.90;;;;;;4997599;28;20050;-87
2021/06/12 05:15:46;;;;;;;8.65;7.93;;;18.20;99.90;;;;;;4997295;28;20050;-87
2021/06/12 05:18:15;;;;;;;7.85;7.13;;;18.40;99.90;;;;;;4997285;28;20050;-87
2021/06/12 05:20:42;;;;;;;8.70;7.75;;;18.50;99.90;;;;;;5014363;28;20128;-87
2021/06/12 05:23:08;;;;;;;7.60;7.00;;;18.60;99.90;;;;;;4996939;28;20509;-86
2021/06/12 05:25:36;;;;;;;7.75;7.18;;;18.70;99.90;;;;;;4996948;28;20052;-87
2021/06/12 05:28:04;;;;;;;7.65;6.95;;;18.90;99.90;;;;;;5014153;28;20299;-86
2021/06/12 05:30:31;;;;;;;7.53;6.95;;;19.10;99.90;;;;;;4997157;28;20060;-86
2021/06/12 05:32:58;;;;;;;7.70;7.00;;;19.20;99.90;;;;;;4996492;28;20058;-86
2021/06/12 05:35:26;;;;;;;7.43;6.85;;;19.60;99.90;;;;;;5013903;28;20046;-86
2021/06/12 05:37:53;;;;;;;6.70;6.20;;;20.00;99.90;;;;;;4999070;28;20053;-87
2021/06/12 05:40:19;;;;;;;9.23;6.43;;;20.80;99.90;;;;;;5013674;28;20446;-86
2021/06/12 05:42:46;;;;;;;5.93;5.50;;;21.00;99.90;;;;;;4996873;28;20045;-87
2021/06/12 05:45:13;;;;;;;6.90;6.18;;;21.50;99.90;;;;;;5014033;28;20077;-87
2021/06/12 05:47:40;;;;;;;6.13;5.63;;;21.50;99.90;;;;;;5013835;28;20077;-86
2021/06/12 05:50:07;;;;;;;6.18;5.72;;;21.50;99.90;;;;;;4996765;28;20502;-88
2021/06/12 05:52:34;;;;;;;6.00;5.55;;;21.90;99.90;;;;;;4997048;28;20068;-87
2021/06/12 05:55:01;;;;;;;6.35;5.03;;;22.90;99.90;;;;;;4996667;28;20050;-88
2021/06/12 05:57:28;;;;;;;10.32;5.35;;;24.00;99.90;;;;;;4996748;28;20056;-87
2021/06/12 05:59:54;;;;;;;5.60;4.90;;;24.00;99.90;;;;;;4996570;28;20054;-88
2021/06/12 06:02:21;;;;;;;5.82;5.30;;;23.80;99.90;;;;;;4996791;28;20077;-89
2021/06/12 06:04:49;;;;;;;5.47;5.13;;;23.60;99.90;;;;;;5014070;28;20457;-87
2021/06/12 06:07:17;;;;;;;4.90;4.60;;;23.70;99.90;;;;;;4996780;28;20050;-88
2021/06/12 06:09:44;;;;;;;6.47;4.63;;;24.40;99.90;;;;;;4996704;28;20045;-89
2021/06/12 06:12:11;;;;;;;5.30;4.90;;;24.90;99.90;;;;;;4996702;28;20129;-88
2021/06/12 06:14:38;;;;;;;5.22;4.72;;;25.60;99.90;;;;;;4996578;28;20093;-89
2021/06/12 06:17:05;;;;;;;4.57;4.28;;;25.50;99.90;;;;;;4996590;28;20054;-89
2021/06/12 06:19:32;;;;;;;4.90;4.60;;;25.30;99.90;;;;;;4996612;28;20445;-89
2021/06/12 06:21:59;;;;;;;5.20;4.80;;;25.20;99.90;;;;;;4996399;28;20387;-88
2021/06/12 06:24:29;;;;;;;4.53;4.22;;;25.00;99.90;;;;;;5013702;28;20046;-88
2021/06/12 06:26:56;;;;;;;5.68;4.53;;;24.80;99.90;;;;;;4996458;28;20056;-88
2021/06/12 06:29:22;;;;;;;5.07;4.68;;;24.80;99.90;;;;;;5013790;28;20046;-89
2021/06/12 06:31:49;;;;;;;4.90;4.50;;;24.50;99.90;;;;;;4996497;28;20475;-89
2021/06/12 06:34:16;;;;;;;4.68;4.28;;;24.40;99.90;;;;;;4996643;28;20461;-89
2021/06/12 06:36:43;;;;;;;4.25;3.95;;;25.00;99.90;;;;;;4996464;28;20046;-88
2021/06/12 06:39:10;;;;;;;5.32;4.05;;;25.80;99.90;;;;;;4996233;28;20080;-89
2021/06/12 06:41:37;;;;;;;11.45;4.13;;;27.00;99.90;;;;;;4996545;28;20093;-89
2021/06/12 06:44:04;;;;;;;3.92;3.60;;;28.00;99.90;;;;;;4996404;28;20396;-87
2021/06/12 06:46:31;;;;;;;5.90;4.20;;;28.70;99.90;;;;;;4999519;28;20049;-86
2021/06/12 06:48:58;;;;;;;4.32;3.58;;;29.50;99.90;;;;;;4999773;28;20046;-87
2021/06/12 06:51:25;;;;;;;4.47;3.97;;;29.50;99.90;;;;;;5017245;28;20058;-88
2021/06/12 06:53:52;;;;;;;6.28;4.03;;;30.50;99.10;;;;;;5000295;28;20046;-88
2021/06/12 06:56:19;;;;;;;4.60;4.07;;;30.30;98.20;;;;;;5000937;28;20136;-88
2021/06/12 06:58:45;;;;;;;6.60;3.83;;;31.10;94.90;;;;;;5006976;28;20153;-87
2021/06/12 07:01:12;;;;;;;7.07;4.20;;;31.40;93.30;;;;;;4999999;28;20085;-87
2021/06/12 07:03:39;;;;;;;10.00;4.32;;;31.20;92.90;;;;;;4999864;28;20085;-88
2021/06/12 07:06:10;;;;;;;6.57;3.20;;;31.70;91.10;;;;;;5017042;28;20054;-88
2021/06/12 07:08:36;;;;;;;13.93;4.57;;;33.10;89.50;;;;;;5000570;28;20041;-88
2021/06/12 07:11:03;;;;;;;17.55;5.05;;;34.00;81.20;;;;;;5001862;28;20081;-88
2021/06/12 07:13:31;;;;;;;11.90;4.55;;;34.50;78.60;;;;;;5000139;28;20046;-89
2021/06/12 07:15:58;;;;;;;9.48;4.82;;;33.60;79.30;;;;;;4999594;28;20050;-87
2021/06/12 07:18:25;;;;;;;9.77;4.18;;;33.50;79.60;;;;;;5000140;28;20061;-89
2021/06/12 07:20:52;;;;;;;7.45;3.75;;;33.40;76.70;;;;;;4999609;28;20141;-89
2021/06/12 07:23:18;;;;;;;7.95;3.53;;;33.50;75.30;;;;;;4999679;28;20503;-89
2021/06/12 07:25:46;;;;;;;6.18;3.33;;;33.80;77.40;;;;;;4999367;28;20053;-88
2021/06/12 07:28:14;;;;;;;16.52;3.92;;;34.70;75.80;;;;;;4999506;28;20495;-88
2021/06/12 07:30:42;;;;;;;8.77;3.75;;;33.60;72.50;;;;;;4999615;28;20483;-90
2021/06/12 07:33:10;;;;;;;3.83;3.40;;;33.90;74.60;;;;;;4999825;28;20133;-88
2021/06/12 07:35:37;;;;;;;4.25;3.85;;;32.40;75.60;;;;;;5000380;28;20137;-91
2021/06/12 07:38:04;;;;;;;4.78;3.72;;;30.90;79.30;;;;;;4999343;28;20053;-87
2021/06/12 07:40:32;;;;;;;4.72;4.00;;;30.20;84.60;;;;;;4999168;28;20061;-88
2021/06/12 07:42:58;;;;;;;5.38;3.72;;;30.00;85.50;;;;;;4999422;28;20414;-87
2021/06/12 07:45:26;;;;;;;3.85;3.55;;;30.10;84.60;;;;;;5002981;28;20050;-87
2021/06/12 07:47:53;;;;;;;11.38;3.40;;;29.90;85.40;;;;;;5004940;28;20069;-87
2021/06/12 07:50:21;;;;;;;3.00;2.70;;;30.90;85.10;;;;;;5004177;28;20045;-91
2021/06/12 07:52:56;;;;;;;3.92;2.90;;;32.10;82.10;;;;;;4988442;28;20493;-90
2021/06/12 07:55:23;;;;;;;3.33;2.88;;;32.60;78.90;;;;;;5001819;28;20509;-89
2021/06/12 07:57:50;;;;;;;3.72;2.60;;;32.50;77.20;;;;;;5004437;28;20109;-92
2021/06/12 08:00:17;;;;;;;4.72;2.85;;;32.10;78.10;;;;;;5005640;28;20494;-89
2021/06/12 08:02:44;;;;;;;3.13;2.90;;;32.30;78.50;;;;;;4999035;28;20487;-90
2021/06/12 08:05:11;;;;;;;3.03;2.80;;;33.40;75.20;;;;;;4999486;28;20056;-90
2021/06/12 08:07:38;;;;;;;2.63;2.42;;;33.70;72.90;;;;;;4998915;28;20052;-90
2021/06/12 08:10:07;;;;;;;4.57;2.42;;;35.10;69.60;;;;;;4999300;28;20590;-88
2021/06/12 08:12:34;;;;;;;2.65;2.45;;;34.60;69.50;;;;;;4998704;28;20042;-87
2021/06/12 08:15:01;;;;;;;2.40;2.28;;;33.90;71.40;;;;;;4998498;28;20057;-88
2021/06/12 08:17:28;;;;;;;2.42;1.98;;;34.10;69.50;;;;;;5014260;28;20420;-89
2021/06/12 08:19:54;;;;;;;2.45;2.25;;;34.20;69.30;;;;;;5002914;28;20081;-89
2021/06/12 08:22:21;;;;;;;4.43;2.20;;;33.30;69.70;;;;;;4998830;28;20049;-90
2021/06/12 08:24:49;;;;;;;4.72;2.00;;;33.30;71.60;;;;;;4998968;28;20418;-90
2021/06/12 08:27:16;;;;;;;2.33;2.13;;;32.40;72.60;;;;;;4998480;28;20160;-87
2021/06/12 08:29:43;;;;;;;12.02;3.10;;;32.90;72.10;;;;;;4998516;28;20058;-87
2021/06/12 08:32:11;;;;;;;4.07;2.17;;;32.90;72.60;;;;;;4998372;28;20045;-88
2021/06/12 08:34:38;;;;;;;2.38;1.90;;;33.00;68.70;;;;;;4998661;28;20052;-89
2021/06/12 08:37:05;;;;;;;2.95;2.10;;;32.80;67.80;;;;;;4998370;28;20057;-89
2021/06/12 08:39:33;;;;;;;4.13;1.65;;;32.10;67.50;;;;;;5015142;28;20050;-90
2021/06/12 08:42:00;;;;;;;1.83;1.65;;;32.20;70.40;;;;;;4987115;28;20046;-91
2021/06/12 08:44:28;;;;;;;2.35;2.15;;;31.30;66.80;;;;;;4994792;28;20102;-88
2021/06/12 08:46:55;;;;;;;3.72;1.85;;;31.20;70.30;;;;;;4997744;28;20111;-88
2021/06/12 08:49:22;;;;;;;3.40;1.80;;;31.40;69.00;;;;;;5015020;28;20502;-87
2021/06/12 08:51:51;;;;;;;1.92;1.83;;;31.20;71.60;;;;;;4998208;28;20050;-87
2021/06/12 08:54:20;;;;;;;8.32;2.20;;;31.20;69.30;;;;;;4998320;28;20064;-88
2021/06/12 08:56:47;;;;;;;6.50;1.85;;;30.70;69.70;;;;;;4997664;28;20042;-87
2021/06/12 08:59:14;;;;;;;2.83;2.17;;;30.50;70.10;;;;;;4997563;28;20509;-87
2021/06/12 09:01:43;;;;;;;1.85;1.75;;;30.40;69.60;;;;;;4997719;28;20049;-88
2021/06/12 09:04:10;;;;;;;2.03;1.83;;;30.60;68.50;;;;;;4997972;28;20054;-88
2021/06/12 09:06:37;;;;;;;2.05;1.90;;;30.70;68.60;;;;;;4997722;28;20421;-86
2021/06/12 09:09:04;;;;;;;4.05;1.98;;;30.60;70.20;;;;;;4996915;28;20054;-88
2021/06/12 09:11:34;;;;;;;1.70;1.60;;;30.30;69.10;;;;;;4997703;28;20046;-88
2021/06/12 09:14:03;;;;;;;1.58;1.45;;;31.10;68.50;;;;;;4997864;28;20057;-88
2021/06/12 09:16:33;;;;;;;3.80;2.08;;;33.50;66.10;;;;;;4999357;28;20117;-89
2021/06/12 09:19:16;;;;;;;3.55;1.60;;;33.50;64.90;;;;;;4999187;28;20104;-85
2021/06/12 09:21:58;;;;;;;2.10;1.47;;;32.80;62.20;;;;;;4998564;28;20104;-88
2021/06/12 09:24:35;;;;;;;7.22;1.73;;;32.50;65.20;;;;;;4997911;28;20466;-87
2021/06/12 09:27:04;;;;;;;9.95;1.90;;;31.50;62.80;;;;;;4997724;28;20052;-87
2021/06/12 09:29:38;;;;;;;4.55;1.90;;;31.10;64.00;;;;;;4997772;28;20414;-88
2021/06/12 09:32:19;;;;;;;14.57;2.40;;;31.90;64.50;;;;;;4997182;28;20046;-88
2021/06/12 09:34:48;;;;;;;18.70;2.42;;;32.20;62.20;;;;;;4998923;28;20161;-87
2021/06/12 09:37:20;;;;;;;1.85;1.45;;;32.50;63.90;;;;;;5012526;28;20088;-85
2021/06/12 09:40:05;;;;;;;8.07;1.70;;;33.10;61.50;;;;;;5016533;28;20052;-87
2021/06/12 09:42:54;;;;;;;2.65;1.40;;;33.90;61.30;;;;;;4997568;28;20469;-87
2021/06/12 09:45:26;;;;;;;4.57;1.75;;;34.10;60.50;;;;;;4997060;28;20076;-88
2021/06/12 09:48:13;;;;;;;2.40;1.67;;;34.80;58.20;;;;;;4996633;28;20061;-86
2021/06/12 09:50:42;;;;;;;1.67;1.58;;;35.20;56.30;;;;;;4997485;28;20132;-85
2021/06/12 09:53:21;;;;;;;3.10;1.55;;;34.10;56.80;;;;;;4997443;28;20153;-90
2021/06/12 09:55:48;;;;;;;2.55;1.48;;;33.70;58.10;;;;;;4996624;28;20152;-87
2021/06/12 09:58:15;;;;;;;2.92;1.83;;;32.90;58.00;;;;;;4996521;28;20070;-89
2021/06/12 10:00:45;;;;;;;3.13;1.63;;;31.60;59.50;;;;;;4997626;28;20076;-86
2021/06/12 10:03:31;;;;;;;5.28;1.95;;;30.90;62.10;;;;;;4996750;28;20073;-87
2021/06/12 10:06:23;;;;;;;35.22;6.20;;;30.00;63.90;;;;;;4996870;28;20088;-86
2021/06/12 10:08:53;;;;;;;3.10;1.63;;;29.50;66.70;;;;;;4997810;28;20042;-86
2021/06/12 10:11:27;;;;;;;2.47;1.70;;;30.40;65.40;;;;;;4996772;28;20064;-87
2021/06/12 10:13:55;;;;;;;1.80;1.70;;;31.70;63.40;;;;;;4996928;28;20058;-86
2021/06/12 10:16:23;;;;;;;1.60;1.50;;;32.30;61.90;;;;;;4996677;28;20410;-86
2021/06/12 10:18:52;;;;;;;1.55;1.45;;;32.90;60.40;;;;;;4997520;28;20077;-86
2021/06/12 10:21:19;;;;;;;1.63;1.50;;;32.90;60.00;;;;;;5000223;28;20054;-85
2021/06/12 10:23:48;;;;;;;2.05;1.50;;;32.80;58.20;;;;;;5000309;28;20041;-85
2021/06/12 10:26:20;;;;;;;6.80;2.10;;;32.50;60.50;;;;;;5001441;28;20053;-85
2021/06/12 10:28:47;;;;;;;4.53;1.60;;;31.30;60.40;;;;;;5000638;28;20494;-88
2021/06/12 10:31:17;;;;;;;6.88;1.90;;;31.00;63.40;;;;;;5000198;28;20056;-87
2021/06/12 10:33:47;;;;;;;3.08;1.63;;;30.60;63.00;;;;;;5000371;28;20050;-87
2021/06/12 10:36:20;;;;;;;4.20;2.00;;;30.80;62.00;;;;;;5000364;28;20060;-86
2021/06/12 10:38:48;;;;;;;2.42;1.65;;;30.20;63.10;;;;;;5017371;28;20056;-86
2021/06/12 10:41:20;;;;;;;4.15;2.15;;;29.30;64.70;;;;;;4999501;28;20078;-86
2021/06/12 10:43:49;;;;;;;12.15;2.63;;;28.60;66.30;;;;;;5017794;28;20049;-86
2021/06/12 10:46:23;;;;;;;2.88;2.00;;;28.50;68.70;;;;;;5000228;28;20132;-85
2021/06/12 10:49:01;;;;;;;6.88;2.22;;;28.60;68.40;;;;;;5000714;28;20053;-86
2021/06/12 10:51:28;;;;;;;6.05;2.33;;;29.50;68.70;;;;;;5000177;28;20125;-88
2021/06/12 10:54:07;;;;;;;4.10;2.22;;;30.50;67.40;;;;;;5001488;28;20077;-85
2021/06/12 10:56:40;;;;;;;3.05;2.22;;;30.90;66.10;;;;;;5035465;28;20049;-87
2021/06/12 10:59:09;;;;;;;2.40;2.10;;;30.30;65.80;;;;;;5018279;28;20084;-85
2021/06/12 11:01:36;;;;;;;3.63;1.83;;;30.00;68.00;;;;;;4999769;28;20438;-85
2021/06/12 11:04:16;;;;;;;1.90;1.80;;;30.30;68.50;;;;;;5016959;28;20104;-87
2021/06/12 11:06:56;;;;;;;3.00;1.80;;;31.30;67.10;;;;;;5000056;28;20054;-88
2021/06/12 11:09:27;;;;;;;1.90;1.80;;;31.70;65.50;;;;;;4999746;28;20050;-86
2021/06/12 11:11:56;;;;;;;4.45;2.17;;;31.60;63.80;;;;;;5016746;28;20082;-86
2021/06/12 11:14:23;;;;;;;6.32;2.65;;;31.40;64.80;;;;;;4999492;28;20046;-85
2021/06/12 11:17:06;;;;;;;3.13;1.90;;;30.60;64.60;;;;;;4999488;28;20049;-85
2021/06/12 11:19:45;;;;;;;2.63;1.90;;;29.70;66.60;;;;;;4999395;28;20172;-86
2021/06/12 11:22:36;;;;;;;2.90;2.22;;;29.10;68.20;;;;;;4999036;28;20793;-86
2021/06/12 11:25:08;;;;;;;3.00;1.90;;;28.60;68.00;;;;;;4999641;28;20054;-85
2021/06/12 11:27:47;;;;;;;2.35;2.22;;;28.10;71.20;;;;;;4999169;28;20049;-87
2021/06/12 11:30:24;;;;;;;3.30;2.33;;;27.60;72.00;;;;;;4999533;28;20056;-85
2021/06/12 11:33:01;;;;;;;2.85;2.40;;;27.20;73.50;;;;;;5018887;28;20057;-86
2021/06/12 11:35:56;;;;;;;4.03;2.47;;;27.10;74.90;;;;;;5000014;28;20049;-85
2021/06/12 11:38:37;;;;;;;3.42;2.85;;;28.10;75.20;;;;;;4999555;28;20049;-85
2021/06/12 11:41:08;;;;;;;2.70;2.50;;;28.80;73.00;;;;;;5015857;28;20494;-86
2021/06/12 11:43:44;;;;;;;3.95;2.90;;;28.40;72.50;;;;;;4999035;28;20053;-86
2021/06/12 11:46:29;;;;;;;8.85;7.97;;;28.30;72.90;;;;;;5016252;28;20133;-86
2021/06/12 11:48:57;;;;;;;10.32;2.58;;;28.20;73.20;;;;;;4998553;28;20084;-84
2021/06/12 11:51:32;;;;;;;6.60;2.42;;;27.80;72.80;;;;;;4998877;28;20053;-86
2021/06/12 11:54:21;;;;;;;5.47;2.72;;;27.20;74.10;;;;;;4998741;28;20076;-84
2021/06/12 11:56:54;;;;;;;5.10;2.67;;;26.70;75.40;;;;;;4998624;28;20057;-85
2021/06/12 11:59:23;;;;;;;4.15;2.47;;;26.30;76.30;;;;;;4998375;28;20053;-86
2021/06/12 12:02:07;;;;;;;2.78;2.58;;;25.90;77.20;;;;;;4998937;28;20095;-84
2021/06/12 12:04:39;;;;;;;;;;;25.60;78.50;;;;;;5002447;28;20089;-86
2021/06/12 12:07:08;;;;;;;3.67;2.60;;;25.50;80.50;;;;;;4999065;28;20008;-87
2021/06/12 12:09:44;;;;;;;3.20;3.00;;;25.40;81.90;;;;;;4998446;28;20045;-84
2021/06/12 12:12:15;;;;;;;5.20;4.70;;;25.50;83.60;;;;;;5016250;28;20107;-87
2021/06/12 12:14:46;;;;;;;6.80;6.18;;;26.00;82.20;;;;;;5009069;28;20073;-85
2021/06/12 12:17:25;;;;;;;3.45;3.20;;;26.80;80.20;;;;;;5005115;28;20137;-87
2021/06/12 12:20:03;;;;;;;4.30;3.22;;;27.50;79.10;;;;;;4998497;28;20128;-85
2021/06/12 12:22:44;;;;;;;2.80;2.60;;;27.90;77.10;;;;;;5016385;28;20116;-83
2021/06/12 12:25:12;;;;;;;3.90;3.53;;;28.20;75.00;;;;;;4999330;28;20439;-86
2021/06/12 12:27:43;;;;;;;4.47;4.07;;;28.20;74.90;;;;;;5000159;28;20068;-86
2021/06/12 12:30:11;;;;;;;3.08;2.88;;;28.20;75.40;;;;;;5017751;28;20048;-86
2021/06/12 12:32:45;;;;;;;3.58;3.38;;;27.70;75.60;;;;;;5003096;28;20045;-86
2021/06/12 12:35:14;;;;;;;5.18;3.28;;;27.30;74.50;;;;;;4998391;28;20120;-86
2021/06/12 12:37:42;;;;;;;3.35;3.05;;;27.00;75.50;;;;;;5017597;28;20057;-86
2021/06/12 12:40:22;;;;;;;3.28;3.05;;;27.00;76.10;;;;;;4998249;28;20050;-85
2021/06/12 12:43:03;;;;;;;3.63;3.28;;;27.10;77.40;;;;;;4981198;28;20077;-87
2021/06/12 12:45:33;;;;;;;6.00;3.08;;;27.50;77.00;;;;;;4998598;28;20108;-86
2021/06/12 12:48:01;;;;;;;4.43;3.15;;;27.80;75.90;;;;;;4997956;28;20058;-86
2021/06/12 12:50:29;;;;;;;3.42;3.15;;;27.90;75.80;;;;;;4997996;28;20056;-86
2021/06/12 12:53:11;;;;;;;6.35;3.88;;;27.90;76.80;;;;;;5014891;28;20060;-86